Witamy w Fly Ecuador Virtual

Fly Ecuador Virtual es una organización creada con el fin de brindar una plataforma que permita a los pilotos virtuales, principalmente ecuatorianos, tener un lugar donde registrar sus horas de vuelo, sus certificados de conocimiento adquiridos, las rutas que han volado y los destinos que han visitado. Así mismo, se busca ayudar a todos los pilotos a expandir su conocimiento sobre el mundo de la aviación real y virtual por medio de publicaciones, foros y cursos en línea.

A diferencia de las aerolíneas virtuales tradicionales, Fly Ecuador Virtual no simula las operaciones de una aerolínea del mundo real en específico. Un miembro de Fly Ecuador Virtual tiene toda la libertad de volar cualquier aeronave que opere en el espacio aéreo ecuatoriano real, en cualquier ruta, sea esta nacional o internacional, IFR o VFR, aeronaves monomotor, multimotor o helicópteros. Todo esto con el objetivo de expandir las operaciones virtuales dentro del espacio aéreo ecuatoriano, creando una comunidad en la que se compartan conocimientos y experiencias que beneficien a todos sus integrantes.

El crecimiento de Fly Ecuador Virtual depende de la participación conjunta de todos sus miembros, por este motivo se incentiva la participación en línea a través de los diferentes medios descritos más adelante en este sitio web.

 Statystyki

Piloci 77
Liczba maszyn 0
Trasy 0
Godziny: 10512.00
Łącznie lotów 1677
Loty Regularne 0
Loty charterowe 1724
% Lotów Regularnych 0.00 %

 Ostatnie loty

CallsignPilotOdlotPrzylotDataDługość lotu
ECU024Arturo Carvajal  SEQM  SERO 2018-10-14 0.88
ECU070Luis Jaramillo  SPJC  SEGU 2018-09-30 1.48
ECU070Luis Jaramillo  SEGU  SPJC 2018-09-29 1.82
ECU070Luis Jaramillo  SKCL  SEGU 2018-09-16 1.24
ECU024Arturo Carvajal  SEGU  SEQM 2018-09-16 0.54

 Nowi Piloci

 Consultar METAR

METAR
SEGU - José Joaquín de Olmedo International Airport, Guayaquil, ECU
Distance from station: N 0mi, 0km
Updated: Mon, 22-Oct-2018 5:00am PDT
Overcast
Overcast
 Wind from SW
Wind: SW 7 mph , 11 km/h
Temperature: 72°F , 22°C
Dew Point: 64°F , 18°C
Humidity: 78%
Barometer: 29.88 inHg , 1012 hPa
Clouds: Overcast
Visibility: 6 miles , 10 km
Cloud details: Few Clouds 1300 ft
Mostly Cloudy 4000 ft
Overcast 10000 ft
2018/10/22 12:00 SEGU 221200Z 22006KT 9999 FEW013 BKN040 OVC100 22/18 Q1012 NOSIG RMK A2990
 
SEQM - Aeropuerto Internacional Mariscal Sucre, ECU
Distance from station: NE 120mi, 200km
Updated: Mon, 22-Oct-2018 5:00am PDT
Mostly Cloudy
Mostly Cloudy
 Wind from SE
Wind: SE 3 mph , 6 km/h
Temperature: 52°F , 11°C
Dew Point: 48°F , 9°C
Humidity: 88%
Barometer: 30.33 inHg , 1027 hPa
Clouds: Mostly Cloudy
Visibility: 6 miles , 10 km
Cloud details: Few Clouds 1000 ft
Mostly Cloudy 2600 ft
Mostly Cloudy 7000 ft
2018/10/22 12:00 SEQM 221200Z 14003KT 9999 FEW010 BKN026 BKN070 11/09 Q1027 NOSIG RMK A3032
 
SECU - Mariscal Lamar Airpor, ECU
Distance from station: ENE 80mi, 120km
Updated: Mon, 22-Oct-2018 5:00am PDT
Overcast
Overcast
 Wind from calm
Wind: Calm
Temperature: 54°F , 12°C
Dew Point: 48°F , 9°C
Humidity: 82%
Barometer: 30.3 inHg , 1026 hPa
Clouds: Overcast
Visibility: 6 miles , 10 km
Cloud details: Overcast 4000 ft
2018/10/22 12:00 SECU 221200Z 00000KT 9999 OVC040 12/09 Q1026
 
SELT - Cotopaxi International Airport, ECU
Distance from station: NW 21mi, 34km
Updated: Mon, 22-Oct-2018 5:00am PDT
Clear
Clear
 Wind from N
Wind: N 2 mph , 4 km/h
Temperature: 45°F , 7°C
Dew Point: 39°F , 4°C
Humidity: 81%
Barometer: 30.39 inHg , 1029 hPa
Summary: Clear
Visibility: greater than 7 miles , 10 km
2018/10/22 12:00 SELT 221200Z 01002KT CAVOK 07/04 Q1029
 
SEMT - Eloy Alfaro International Airport, ECU
Distance from station: SSE 70mi, 100km
Updated: Mon, 22-Oct-2018 5:00am PDT
Overcast
Overcast
 Wind from WSW
Wind: WSW 8 mph , 13 km/h
Temperature: 72°F , 22°C
Dew Point: 68°F , 20°C
Humidity: 88%
Barometer: 29.91 inHg , 1013 hPa
Clouds: Overcast
Visibility: 6 miles , 10 km
Cloud details: Overcast 2000 ft
2018/10/22 12:00 SEMT 221200Z 24007KT 9999 OVC020 22/20 Q1013 RMK A2993

Metar display script from Saratoga-Weather.org

 NOTAMy

NOTAMData



Fly Ecuador Virtual 2018 | System by VAM